sensor_id;sensor_type;location;lat;lon;timestamp;pressure;altitude;pressure_sealevel;temperature;humidity
15314;BME280;7757;52.626;4.746;2023-03-17T00:02:32;100536.97;;;15.27;57.58
15314;BME280;7757;52.626;4.746;2023-03-17T00:05:21;100532.66;;;15.26;57.73
15314;BME280;7757;52.626;4.746;2023-03-17T00:08:16;100528.88;;;15.27;57.35
15314;BME280;7757;52.626;4.746;2023-03-17T00:11:09;100514.00;;;15.24;57.62
15314;BME280;7757;52.626;4.746;2023-03-17T00:13:55;100518.03;;;15.15;58.70
15314;BME280;7757;52.626;4.746;2023-03-17T00:16:43;100525.00;;;15.23;57.94
15314;BME280;7757;52.626;4.746;2023-03-17T00:19:30;100514.44;;;15.21;58.71
15314;BME280;7757;52.626;4.746;2023-03-17T00:22:16;100528.09;;;15.26;57.94
15314;BME280;7757;52.626;4.746;2023-03-17T00:25:17;100531.22;;;15.23;58.49
15314;BME280;7757;52.626;4.746;2023-03-17T00:28:02;100515.13;;;15.17;57.68
15314;BME280;7757;52.626;4.746;2023-03-17T00:30:53;100505.06;;;15.24;58.64
15314;BME280;7757;52.626;4.746;2023-03-17T00:33:40;100500.53;;;15.24;57.44
15314;BME280;7757;52.626;4.746;2023-03-17T00:36:27;100498.06;;;15.23;57.95
15314;BME280;7757;52.626;4.746;2023-03-17T00:39:13;100496.66;;;15.20;58.39
15314;BME280;7757;52.626;4.746;2023-03-17T00:42:00;100495.38;;;15.23;57.33
15314;BME280;7757;52.626;4.746;2023-03-17T00:44:46;100506.97;;;15.23;57.75
15314;BME280;7757;52.626;4.746;2023-03-17T00:47:31;100499.56;;;15.19;58.31
15314;BME280;7757;52.626;4.746;2023-03-17T00:50:19;100503.66;;;15.21;57.50
15314;BME280;7757;52.626;4.746;2023-03-17T00:53:08;100506.16;;;15.23;58.62
15314;BME280;7757;52.626;4.746;2023-03-17T00:55:53;100502.84;;;15.21;57.44
15314;BME280;7757;52.626;4.746;2023-03-17T00:58:41;100508.00;;;15.22;57.84
15314;BME280;7757;52.626;4.746;2023-03-17T01:01:26;100504.28;;;15.23;58.51
15314;BME280;7757;52.626;4.746;2023-03-17T01:04:12;100483.63;;;15.17;58.24
15314;BME280;7757;52.626;4.746;2023-03-17T01:06:58;100496.41;;;15.22;58.27
15314;BME280;7757;52.626;4.746;2023-03-17T01:09:44;100487.50;;;15.21;57.82
15314;BME280;7757;52.626;4.746;2023-03-17T01:12:29;100488.31;;;15.22;58.44
15314;BME280;7757;52.626;4.746;2023-03-17T01:15:17;100483.38;;;15.19;58.30
15314;BME280;7757;52.626;4.746;2023-03-17T01:18:02;100483.97;;;15.21;57.46
15314;BME280;7757;52.626;4.746;2023-03-17T01:20:48;100475.69;;;15.22;58.39
15314;BME280;7757;52.626;4.746;2023-03-17T01:23:34;100490.19;;;15.21;58.32
15314;BME280;7757;52.626;4.746;2023-03-17T01:26:19;100482.13;;;15.21;57.96
15314;BME280;7757;52.626;4.746;2023-03-17T01:29:05;100488.78;;;15.19;57.55
15314;BME280;7757;52.626;4.746;2023-03-17T01:31:52;100488.56;;;15.20;58.45
15314;BME280;7757;52.626;4.746;2023-03-17T01:34:37;100492.50;;;15.18;58.73
15314;BME280;7757;52.626;4.746;2023-03-17T01:37:23;100494.75;;;15.21;58.31
15314;BME280;7757;52.626;4.746;2023-03-17T01:40:13;100492.31;;;15.19;57.81
15314;BME280;7757;52.626;4.746;2023-03-17T01:43:12;100485.03;;;15.20;58.31
15314;BME280;7757;52.626;4.746;2023-03-17T01:46:17;100483.38;;;15.19;57.24
15314;BME280;7757;52.626;4.746;2023-03-17T01:49:11;100471.56;;;15.20;58.40
15314;BME280;7757;52.626;4.746;2023-03-17T01:52:01;100461.31;;;15.10;58.34
15314;BME280;7757;52.626;4.746;2023-03-17T01:54:50;100473.06;;;15.16;57.93
15314;BME280;7757;52.626;4.746;2023-03-17T01:57:41;100473.66;;;15.18;57.57
15314;BME280;7757;52.626;4.746;2023-03-17T02:00:28;100467.09;;;15.14;58.34
15314;BME280;7757;52.626;4.746;2023-03-17T02:03:14;100462.06;;;15.17;58.27
15314;BME280;7757;52.626;4.746;2023-03-17T02:06:01;100467.22;;;15.19;57.54
15314;BME280;7757;52.626;4.746;2023-03-17T02:08:47;100452.94;;;15.18;57.60
15314;BME280;7757;52.626;4.746;2023-03-17T02:11:33;100454.22;;;15.16;57.86
15314;BME280;7757;52.626;4.746;2023-03-17T02:14:18;100450.22;;;15.18;58.20
15314;BME280;7757;52.626;4.746;2023-03-17T02:17:04;100460.41;;;15.16;57.56
15314;BME280;7757;52.626;4.746;2023-03-17T02:19:50;100454.66;;;15.13;57.51
15314;BME280;7757;52.626;4.746;2023-03-17T02:22:37;100443.28;;;15.11;58.23
15314;BME280;7757;52.626;4.746;2023-03-17T02:25:24;100439.53;;;15.12;58.70
15314;BME280;7757;52.626;4.746;2023-03-17T02:28:12;100438.88;;;15.16;58.05
15314;BME280;7757;52.626;4.746;2023-03-17T02:30:58;100438.50;;;15.13;58.30
15314;BME280;7757;52.626;4.746;2023-03-17T02:33:44;100441.19;;;15.13;58.16
15314;BME280;7757;52.626;4.746;2023-03-17T02:36:29;100441.19;;;15.13;57.64
15314;BME280;7757;52.626;4.746;2023-03-17T02:39:16;100447.16;;;15.15;58.11
15314;BME280;7757;52.626;4.746;2023-03-17T02:42:01;100429.25;;;15.08;58.46
15314;BME280;7757;52.626;4.746;2023-03-17T02:44:47;100437.00;;;15.17;58.03
15314;BME280;7757;52.626;4.746;2023-03-17T02:47:32;100428.53;;;15.13;57.65
15314;BME280;7757;52.626;4.746;2023-03-17T02:50:20;100425.59;;;15.15;58.36
15314;BME280;7757;52.626;4.746;2023-03-17T02:53:06;100423.75;;;15.15;57.55
15314;BME280;7757;52.626;4.746;2023-03-17T02:55:53;100429.38;;;15.14;58.69
15314;BME280;7757;52.626;4.746;2023-03-17T02:58:39;100438.03;;;15.16;58.60
15314;BME280;7757;52.626;4.746;2023-03-17T03:01:25;100443.44;;;15.16;58.41
15314;BME280;7757;52.626;4.746;2023-03-17T03:04:10;100430.28;;;15.07;58.03
15314;BME280;7757;52.626;4.746;2023-03-17T03:06:56;100444.47;;;15.15;57.82
15314;BME280;7757;52.626;4.746;2023-03-17T03:09:42;100447.16;;;15.15;58.36
15314;BME280;7757;52.626;4.746;2023-03-17T03:12:28;100438.13;;;15.09;57.85
15314;BME280;7757;52.626;4.746;2023-03-17T03:15:14;100440.97;;;15.14;58.38
15314;BME280;7757;52.626;4.746;2023-03-17T03:17:59;100439.06;;;15.15;58.39
15314;BME280;7757;52.626;4.746;2023-03-17T03:20:45;100421.81;;;15.04;57.90
15314;BME280;7757;52.626;4.746;2023-03-17T03:23:31;100440.34;;;15.12;58.49
15314;BME280;7757;52.626;4.746;2023-03-17T03:26:16;100438.50;;;15.13;58.75
15314;BME280;7757;52.626;4.746;2023-03-17T03:29:03;100438.50;;;15.13;58.15
15314;BME280;7757;52.626;4.746;2023-03-17T03:31:48;100437.66;;;15.12;58.30
15314;BME280;7757;52.626;4.746;2023-03-17T03:34:34;100441.19;;;15.13;58.00
15314;BME280;7757;52.626;4.746;2023-03-17T03:37:21;100443.66;;;15.14;57.63
15314;BME280;7757;52.626;4.746;2023-03-17T03:40:08;100433.56;;;15.09;57.88
15314;BME280;7757;52.626;4.746;2023-03-17T03:42:53;100425.72;;;15.08;58.66
15314;BME280;7757;52.626;4.746;2023-03-17T03:45:40;100424.75;;;15.02;57.91
15314;BME280;7757;52.626;4.746;2023-03-17T03:48:25;100436.25;;;15.09;58.03
15314;BME280;7757;52.626;4.746;2023-03-17T03:51:11;100423.03;;;15.08;57.94
15314;BME280;7757;52.626;4.746;2023-03-17T03:53:56;100417.47;;;15.03;58.31
15314;BME280;7757;52.626;4.746;2023-03-17T03:56:41;100433.94;;;15.13;57.62
15314;BME280;7757;52.626;4.746;2023-03-17T03:59:27;100444.72;;;15.13;58.02
15314;BME280;7757;52.626;4.746;2023-03-17T04:02:14;100443.66;;;15.14;58.71
15314;BME280;7757;52.626;4.746;2023-03-17T04:05:01;100454.66;;;15.13;57.66
15314;BME280;7757;52.626;4.746;2023-03-17T04:07:46;100450.53;;;15.10;58.71
15314;BME280;7757;52.626;4.746;2023-03-17T04:10:32;100456.75;;;15.11;59.08
15314;BME280;7757;52.626;4.746;2023-03-17T04:13:17;100462.16;;;15.11;58.83
15314;BME280;7757;52.626;4.746;2023-03-17T04:16:04;100446.19;;;15.09;58.04
15314;BME280;7757;52.626;4.746;2023-03-17T04:18:50;100435.06;;;15.05;58.20
15314;BME280;7757;52.626;4.746;2023-03-17T04:21:36;100452.41;;;15.09;58.24
15314;BME280;7757;52.626;4.746;2023-03-17T04:24:21;100443.28;;;15.11;57.51
15314;BME280;7757;52.626;4.746;2023-03-17T04:27:07;100430.94;;;15.03;58.40
15314;BME280;7757;52.626;4.746;2023-03-17T04:29:53;100440.66;;;15.04;57.87
15314;BME280;7757;52.626;4.746;2023-03-17T04:32:38;100457.78;;;15.09;57.70
15314;BME280;7757;52.626;4.746;2023-03-17T04:35:25;100465.88;;;15.09;58.62
15314;BME280;7757;52.626;4.746;2023-03-17T04:38:11;100460.34;;;15.04;58.78
15314;BME280;7757;52.626;4.746;2023-03-17T04:40:57;100458.63;;;15.10;58.58
15314;BME280;7757;52.626;4.746;2023-03-17T04:43:42;100450.31;;;15.12;58.20
15314;BME280;7757;52.626;4.746;2023-03-17T04:46:28;100444.78;;;15.06;58.30
15314;BME280;7757;52.626;4.746;2023-03-17T04:49:13;100462.16;;;15.11;57.69
15314;BME280;7757;52.626;4.746;2023-03-17T04:52:00;100442.69;;;15.08;58.29
15314;BME280;7757;52.626;4.746;2023-03-17T04:54:45;100447.03;;;15.09;58.03
15314;BME280;7757;52.626;4.746;2023-03-17T04:57:31;100447.25;;;15.08;57.82
15314;BME280;7757;52.626;4.746;2023-03-17T05:00:17;100443.50;;;15.09;57.99
15314;BME280;7757;52.626;4.746;2023-03-17T05:03:03;100460.50;;;15.09;58.44
15314;BME280;7757;52.626;4.746;2023-03-17T05:05:49;100459.91;;;15.07;58.50
15314;BME280;7757;52.626;4.746;2023-03-17T05:08:36;100462.34;;;15.09;58.10
15314;BME280;7757;52.626;4.746;2023-03-17T05:11:21;100466.94;;;15.08;57.77
15314;BME280;7757;52.626;4.746;2023-03-17T05:14:07;100453.31;;;15.03;58.22
15314;BME280;7757;52.626;4.746;2023-03-17T05:16:52;100456.75;;;15.11;57.79
15314;BME280;7757;52.626;4.746;2023-03-17T05:19:37;100473.97;;;15.09;58.11
15314;BME280;7757;52.626;4.746;2023-03-17T05:22:23;100465.03;;;15.09;58.27
15314;BME280;7757;52.626;4.746;2023-03-17T05:25:10;100463.19;;;15.09;57.63
15314;BME280;7757;52.626;4.746;2023-03-17T05:27:55;100460.50;;;15.09;57.47
15314;BME280;7757;52.626;4.746;2023-03-17T05:30:42;100452.72;;;15.01;57.63
15314;BME280;7757;52.626;4.746;2023-03-17T05:33:27;100466.31;;;15.06;57.87
15314;BME280;7757;52.626;4.746;2023-03-17T05:36:12;100480.41;;;15.08;57.68
15314;BME280;7757;52.626;4.746;2023-03-17T05:38:58;100479.59;;;15.08;57.92
15314;BME280;7757;52.626;4.746;2023-03-17T05:41:45;100455.56;;;15.06;58.69
15314;BME280;7757;52.626;4.746;2023-03-17T05:44:31;100429.69;;;15.05;58.16
15314;BME280;7757;52.626;4.746;2023-03-17T05:47:16;100473.38;;;15.07;58.75
15314;BME280;7757;52.626;4.746;2023-03-17T05:50:02;100445.59;;;15.07;58.68
15314;BME280;7757;52.626;4.746;2023-03-17T05:52:48;100438.66;;;14.99;58.27
15314;BME280;7757;52.626;4.746;2023-03-17T05:55:35;100443.16;;;15.05;58.01
15314;BME280;7757;52.626;4.746;2023-03-17T05:58:21;100402.13;;;15.03;57.71
15314;BME280;7757;52.626;4.746;2023-03-17T06:01:07;100350.50;;;15.06;58.11
15314;BME280;7757;52.626;4.746;2023-03-17T06:03:52;100389.88;;;15.07;58.04
15314;BME280;7757;52.626;4.746;2023-03-17T06:06:37;100410.47;;;15.02;58.10
15314;BME280;7757;52.626;4.746;2023-03-17T06:09:23;100430.72;;;15.04;57.65
15314;BME280;7757;52.626;4.746;2023-03-17T06:12:08;100413.06;;;15.08;57.66
15314;BME280;7757;52.626;4.746;2023-03-17T06:14:55;100419.50;;;15.07;57.57
15314;BME280;7757;52.626;4.746;2023-03-17T06:17:40;100445.16;;;15.10;57.66
15314;BME280;7757;52.626;4.746;2023-03-17T06:20:26;100451.22;;;15.05;58.13
15314;BME280;7757;52.626;4.746;2023-03-17T06:23:11;100446.81;;;15.11;57.84
15314;BME280;7757;52.626;4.746;2023-03-17T06:25:57;100465.66;;;15.11;57.99
15314;BME280;7757;52.626;4.746;2023-03-17T06:28:42;100473.75;;;15.11;58.00
15314;BME280;7757;52.626;4.746;2023-03-17T06:31:29;100450.78;;;15.08;57.82
15314;BME280;7757;52.626;4.746;2023-03-17T06:34:15;100429.81;;;15.11;58.58
15314;BME280;7757;52.626;4.746;2023-03-17T06:37:00;100445.09;;;15.17;58.14
15314;BME280;7757;52.626;4.746;2023-03-17T06:39:46;100437.00;;;15.17;57.80
15314;BME280;7757;52.626;4.746;2023-03-17T06:42:31;100431.16;;;15.20;58.20
15314;BME280;7757;52.626;4.746;2023-03-17T06:45:17;100423.75;;;15.15;57.22
15314;BME280;7757;52.626;4.746;2023-03-17T06:48:04;100440.06;;;15.20;57.69
15314;BME280;7757;52.626;4.746;2023-03-17T06:50:49;100434.91;;;15.19;58.26
15314;BME280;7757;52.626;4.746;2023-03-17T06:53:35;100442.78;;;15.20;57.68
15314;BME280;7757;52.626;4.746;2023-03-17T06:56:21;100432.00;;;15.20;57.36
15314;BME280;7757;52.626;4.746;2023-03-17T06:59:06;100440.66;;;15.22;57.58
15314;BME280;7757;52.626;4.746;2023-03-17T07:01:52;100422.25;;;15.19;58.09
15314;BME280;7757;52.626;4.746;2023-03-17T07:04:38;100425.91;;;15.25;57.75
15314;BME280;7757;52.626;4.746;2023-03-17T07:07:24;100438.47;;;15.31;57.46
15314;BME280;7757;52.626;4.746;2023-03-17T07:10:10;100448.44;;;15.30;57.02
15314;BME280;7757;52.626;4.746;2023-03-17T07:12:56;100461.06;;;15.30;57.23
15314;BME280;7757;52.626;4.746;2023-03-17T07:15:43;100463.69;;;15.36;56.85
15314;BME280;7757;52.626;4.746;2023-03-17T07:18:29;100465.56;;;15.36;56.67
15314;BME280;7757;52.626;4.746;2023-03-17T07:21:18;100465.56;;;15.36;57.55
15314;BME280;7757;52.626;4.746;2023-03-17T07:24:04;100452.34;;;15.34;56.67
15314;BME280;7757;52.626;4.746;2023-03-17T07:26:49;100471.13;;;15.41;57.41
15314;BME280;7757;52.626;4.746;2023-03-17T07:29:34;100461.50;;;15.45;57.81
15314;BME280;7757;52.626;4.746;2023-03-17T07:32:20;100447.00;;;15.46;57.38
15314;BME280;7757;52.626;4.746;2023-03-17T07:35:05;100465.56;;;15.54;56.36
15314;BME280;7757;52.626;4.746;2023-03-17T07:37:52;100475.69;;;15.58;56.77
15314;BME280;7757;52.626;4.746;2023-03-17T07:40:38;100469.22;;;15.59;56.73
15314;BME280;7757;52.626;4.746;2023-03-17T07:43:24;100474.72;;;16.24;57.45
15314;BME280;7757;52.626;4.746;2023-03-17T07:46:09;100471.75;;;16.79;56.53
15314;BME280;7757;52.626;4.746;2023-03-17T07:48:56;100467.66;;;16.88;56.60
15314;BME280;7757;52.626;4.746;2023-03-17T07:51:41;100457.06;;;16.63;56.97
15314;BME280;7757;52.626;4.746;2023-03-17T07:54:28;100478.94;;;16.61;57.43
15314;BME280;7757;52.626;4.746;2023-03-17T07:57:14;100462.47;;;16.63;57.18
15314;BME280;7757;52.626;4.746;2023-03-17T08:00:00;100453.09;;;16.65;57.35
15314;BME280;7757;52.626;4.746;2023-03-17T08:02:45;100461.19;;;16.54;57.32
15314;BME280;7757;52.626;4.746;2023-03-17T08:05:30;100480.75;;;16.49;57.46
15314;BME280;7757;52.626;4.746;2023-03-17T08:08:16;100492.03;;;16.46;56.99
15314;BME280;7757;52.626;4.746;2023-03-17T08:11:04;100498.88;;;16.60;57.17
15314;BME280;7757;52.626;4.746;2023-03-17T08:13:50;100509.22;;;16.75;56.37
15314;BME280;7757;52.626;4.746;2023-03-17T08:16:35;100496.19;;;16.72;56.94
15314;BME280;7757;52.626;4.746;2023-03-17T08:19:21;100469.16;;;16.60;56.61
15314;BME280;7757;52.626;4.746;2023-03-17T08:22:07;100461.91;;;16.61;56.39
15314;BME280;7757;52.626;4.746;2023-03-17T08:24:52;100455.44;;;16.85;55.75
15314;BME280;7757;52.626;4.746;2023-03-17T08:27:40;100448.28;;;16.79;56.24
15314;BME280;7757;52.626;4.746;2023-03-17T08:30:25;100450.50;;;16.94;56.16
15314;BME280;7757;52.626;4.746;2023-03-17T08:33:11;100453.66;;;17.02;55.65
15314;BME280;7757;52.626;4.746;2023-03-17T08:35:57;100446.03;;;16.88;55.76
15314;BME280;7757;52.626;4.746;2023-03-17T08:38:43;100429.13;;;16.69;55.64
15314;BME280;7757;52.626;4.746;2023-03-17T08:41:29;100437.47;;;16.79;56.22
15314;BME280;7757;52.626;4.746;2023-03-17T08:44:16;100455.31;;;16.80;56.55
15314;BME280;7757;52.626;4.746;2023-03-17T08:47:01;100442.53;;;16.76;56.32
15314;BME280;7757;52.626;4.746;2023-03-17T08:49:47;100449.41;;;16.95;55.53
15314;BME280;7757;52.626;4.746;2023-03-17T08:52:33;100448.44;;;17.12;54.90
15314;BME280;7757;52.626;4.746;2023-03-17T08:55:19;100457.13;;;17.26;54.54
15314;BME280;7757;52.626;4.746;2023-03-17T08:58:04;100472.53;;;17.25;54.50
15314;BME280;7757;52.626;4.746;2023-03-17T09:00:51;100463.03;;;17.11;54.88
15314;BME280;7757;52.626;4.746;2023-03-17T09:03:38;100470.78;;;17.08;54.46
15314;BME280;7757;52.626;4.746;2023-03-17T09:06:24;100474.44;;;17.02;55.02
15314;BME280;7757;52.626;4.746;2023-03-17T09:09:10;100466.94;;;16.92;55.11
15314;BME280;7757;52.626;4.746;2023-03-17T09:11:55;100483.75;;;16.94;55.24
15314;BME280;7757;52.626;4.746;2023-03-17T09:14:40;100467.28;;;16.96;54.36
15314;BME280;7757;52.626;4.746;2023-03-17T09:17:28;100450.72;;;16.92;54.71
15314;BME280;7757;52.626;4.746;2023-03-17T09:20:14;100469.16;;;16.95;54.30
15314;BME280;7757;52.626;4.746;2023-03-17T09:23:00;100488.19;;;17.12;54.25
15314;BME280;7757;52.626;4.746;2023-03-17T09:25:46;100497.19;;;17.29;53.60
15314;BME280;7757;52.626;4.746;2023-03-17T09:28:31;100506.38;;;17.28;54.08
15314;BME280;7757;52.626;4.746;2023-03-17T09:31:17;100497.66;;;17.38;53.14
15314;BME280;7757;52.626;4.746;2023-03-17T09:34:04;100498.47;;;17.38;53.70
15314;BME280;7757;52.626;4.746;2023-03-17T09:36:50;100499.31;;;17.39;53.78
15314;BME280;7757;52.626;4.746;2023-03-17T09:39:35;100514.69;;;17.38;53.59
15314;BME280;7757;52.626;4.746;2023-03-17T09:42:37;100513.31;;;17.24;54.18
15314;BME280;7757;52.626;4.746;2023-03-17T09:45:31;100506.47;;;17.21;54.34
15314;BME280;7757;52.626;4.746;2023-03-17T09:51:28;100512.00;;;17.38;53.24
15314;BME280;7757;52.626;4.746;2023-03-17T09:54:22;100519.84;;;17.40;53.17
15314;BME280;7757;52.626;4.746;2023-03-17T09:57:13;100523.47;;;17.45;53.18
15314;BME280;7757;52.626;4.746;2023-03-17T10:00:04;100530.41;;;17.53;53.02
15314;BME280;7757;52.626;4.746;2023-03-17T10:02:51;100526.31;;;17.62;52.55
15314;BME280;7757;52.626;4.746;2023-03-17T10:05:36;100526.06;;;17.63;52.84
15314;BME280;7757;52.626;4.746;2023-03-17T10:08:25;100538.06;;;17.67;52.51
15314;BME280;7757;52.626;4.746;2023-03-17T10:11:19;100547.81;;;17.68;52.44
15314;BME280;7757;52.626;4.746;2023-03-17T10:14:33;100546.13;;;17.79;51.79
15314;BME280;7757;52.626;4.746;2023-03-17T10:17:24;100537.63;;;17.87;52.20
15314;BME280;7757;52.626;4.746;2023-03-17T10:20:13;100553.38;;;17.90;51.73
15314;BME280;7757;52.626;4.746;2023-03-17T10:23:02;100558.56;;;17.92;52.11
15314;BME280;7757;52.626;4.746;2023-03-17T10:25:51;100551.25;;;17.92;52.64
15314;BME280;7757;52.626;4.746;2023-03-17T10:28:39;100574.53;;;17.93;52.18
15314;BME280;7757;52.626;4.746;2023-03-17T10:31:29;100569.78;;;17.72;52.57
15314;BME280;7757;52.626;4.746;2023-03-17T10:34:16;100579.22;;;17.46;52.48
15314;BME280;7757;52.626;4.746;2023-03-17T10:37:04;100583.81;;;17.22;51.21
15314;BME280;7757;52.626;4.746;2023-03-17T10:39:51;100592.84;;;17.28;50.89
15314;BME280;7757;52.626;4.746;2023-03-17T10:42:47;100585.00;;;17.03;51.21
15314;BME280;7757;52.626;4.746;2023-03-17T10:45:33;100581.22;;;16.93;50.78
15314;BME280;7757;52.626;4.746;2023-03-17T10:48:21;100590.97;;;17.05;51.06
15314;BME280;7757;52.626;4.746;2023-03-17T10:51:07;100585.00;;;17.03;50.53
15314;BME280;7757;52.626;4.746;2023-03-17T10:53:53;100578.03;;;16.96;50.56
15314;BME280;7757;52.626;4.746;2023-03-17T10:56:40;100572.06;;;17.05;49.90
15314;BME280;7757;52.626;4.746;2023-03-17T10:59:30;100577.00;;;17.20;49.76
15314;BME280;7757;52.626;4.746;2023-03-17T11:02:19;100568.41;;;17.23;50.05
15314;BME280;7757;52.626;4.746;2023-03-17T11:05:07;100561.38;;;17.22;49.96
15314;BME280;7757;52.626;4.746;2023-03-17T11:08:08;100557.50;;;17.18;50.36
15314;BME280;7757;52.626;4.746;2023-03-17T11:10:54;100569.81;;;17.25;51.18
15314;BME280;7757;52.626;4.746;2023-03-17T11:13:40;100559.59;;;17.27;51.30
15314;BME280;7757;52.626;4.746;2023-03-17T11:16:27;100568.53;;;17.28;50.64
15314;BME280;7757;52.626;4.746;2023-03-17T11:19:14;100557.34;;;17.24;51.35
15314;BME280;7757;52.626;4.746;2023-03-17T11:22:04;100556.06;;;17.15;51.78
15314;BME280;7757;52.626;4.746;2023-03-17T11:24:59;100549.03;;;17.14;51.44
15314;BME280;7757;52.626;4.746;2023-03-17T11:27:51;100550.66;;;17.15;51.76
15314;BME280;7757;52.626;4.746;2023-03-17T11:30:42;100550.44;;;17.17;52.14
15314;BME280;7757;52.626;4.746;2023-03-17T11:33:41;100562.78;;;17.13;51.95
15314;BME280;7757;52.626;4.746;2023-03-17T11:36:41;100563.13;;;17.05;52.67
15314;BME280;7757;52.626;4.746;2023-03-17T11:39:34;100562.31;;;17.16;52.74
15314;BME280;7757;52.626;4.746;2023-03-17T11:42:27;100547.13;;;16.92;52.88
15314;BME280;7757;52.626;4.746;2023-03-17T11:45:20;100552.44;;;17.10;52.96
15314;BME280;7757;52.626;4.746;2023-03-17T11:48:13;100552.06;;;16.95;52.88
15314;BME280;7757;52.626;4.746;2023-03-17T11:51:07;100548.91;;;16.86;53.32
15314;BME280;7757;52.626;4.746;2023-03-17T11:54:06;100549.38;;;16.95;53.58
15314;BME280;7757;52.626;4.746;2023-03-17T11:56:56;100538.72;;;17.11;52.92
15314;BME280;7757;52.626;4.746;2023-03-17T11:59:46;100539.28;;;17.02;53.25
15314;BME280;7757;52.626;4.746;2023-03-17T12:02:38;100547.28;;;16.97;53.82
15314;BME280;7757;52.626;4.746;2023-03-17T12:05:25;100545.97;;;16.76;54.69
15314;BME280;7757;52.626;4.746;2023-03-17T12:08:18;100539.28;;;16.79;54.73
15314;BME280;7757;52.626;4.746;2023-03-17T12:11:09;100534.44;;;16.57;55.33
15314;BME280;7757;52.626;4.746;2023-03-17T12:14:01;100506.88;;;16.79;54.63
15314;BME280;7757;52.626;4.746;2023-03-17T12:16:51;100489.38;;;16.69;54.91
15314;BME280;7757;52.626;4.746;2023-03-17T12:19:43;100486.56;;;16.64;55.63
15314;BME280;7757;52.626;4.746;2023-03-17T12:22:33;100498.88;;;17.07;54.47
15314;BME280;7757;52.626;4.746;2023-03-17T12:25:26;100503.78;;;17.10;54.34
15314;BME280;7757;52.626;4.746;2023-03-17T12:28:19;100495.94;;;17.08;54.35
15314;BME280;7757;52.626;4.746;2023-03-17T12:31:11;100470.41;;;17.16;54.54
15314;BME280;7757;52.626;4.746;2023-03-17T12:34:02;100485.81;;;17.15;54.47
15314;BME280;7757;52.626;4.746;2023-03-17T12:36:49;100482.50;;;17.25;54.82
15314;BME280;7757;52.626;4.746;2023-03-17T12:39:35;100488.88;;;17.19;54.97
15314;BME280;7757;52.626;4.746;2023-03-17T12:42:33;100487.25;;;17.18;55.04
15314;BME280;7757;52.626;4.746;2023-03-17T12:45:37;100492.66;;;16.83;56.12
15314;BME280;7757;52.626;4.746;2023-03-17T12:48:36;100482.81;;;16.89;56.06
15314;BME280;7757;52.626;4.746;2023-03-17T12:51:34;100493.94;;;17.04;56.25
15314;BME280;7757;52.626;4.746;2023-03-17T12:54:25;100496.63;;;16.92;55.79
15314;BME280;7757;52.626;4.746;2023-03-17T12:57:14;100496.41;;;17.05;56.12
15314;BME280;7757;52.626;4.746;2023-03-17T13:00:05;100512.75;;;16.99;55.89
15314;BME280;7757;52.626;4.746;2023-03-17T13:03:10;100493.72;;;16.70;56.25
15314;BME280;7757;52.626;4.746;2023-03-17T13:05:58;100504.28;;;17.07;56.11
15314;BME280;7757;52.626;4.746;2023-03-17T13:08:44;100509.00;;;17.00;55.99
15314;BME280;7757;52.626;4.746;2023-03-17T13:11:46;100525.31;;;16.93;55.94
15314;BME280;7757;52.626;4.746;2023-03-17T13:14:40;100532.13;;;16.84;56.47
15314;BME280;7757;52.626;4.746;2023-03-17T13:17:32;100527.44;;;17.03;56.02
15314;BME280;7757;52.626;4.746;2023-03-17T13:20:19;100541.03;;;17.19;56.09
15314;BME280;7757;52.626;4.746;2023-03-17T13:23:12;100526.22;;;17.34;55.34
15314;BME280;7757;52.626;4.746;2023-03-17T13:25:58;100510.13;;;17.39;55.16
15314;BME280;7757;52.626;4.746;2023-03-17T13:28:45;100512.66;;;17.45;54.89
15314;BME280;7757;52.626;4.746;2023-03-17T13:31:34;100493.66;;;17.40;55.37
15314;BME280;7757;52.626;4.746;2023-03-17T13:34:21;100501.53;;;17.42;55.17
15314;BME280;7757;52.626;4.746;2023-03-17T13:37:14;100496.69;;;17.44;55.14
15314;BME280;7757;52.626;4.746;2023-03-17T13:40:10;100476.13;;;17.43;55.05
15314;BME280;7757;52.626;4.746;2023-03-17T13:43:18;100497.28;;;17.46;55.30
15314;BME280;7757;52.626;4.746;2023-03-17T13:46:19;100483.06;;;17.50;54.77
15314;BME280;7757;52.626;4.746;2023-03-17T13:49:17;100514.09;;;17.59;54.62
15314;BME280;7757;52.626;4.746;2023-03-17T13:52:11;100515.72;;;17.60;54.46
15314;BME280;7757;52.626;4.746;2023-03-17T13:55:02;100511.97;;;17.61;54.63
15314;BME280;7757;52.626;4.746;2023-03-17T13:57:54;100512.78;;;17.62;54.73
15314;BME280;7757;52.626;4.746;2023-03-17T14:00:42;100519.47;;;17.71;54.74
15314;BME280;7757;52.626;4.746;2023-03-17T14:03:35;100512.88;;;17.67;54.86
15314;BME280;7757;52.626;4.746;2023-03-17T14:06:26;100507.72;;;17.65;55.63
15314;BME280;7757;52.626;4.746;2023-03-17T14:09:24;100506.06;;;17.64;55.39
15314;BME280;7757;52.626;4.746;2023-03-17T14:12:18;100504.19;;;17.65;55.07
15314;BME280;7757;52.626;4.746;2023-03-17T14:15:23;100496.31;;;17.63;55.33
15314;BME280;7757;52.626;4.746;2023-03-17T14:18:13;100497.13;;;17.64;55.40
15314;BME280;7757;52.626;4.746;2023-03-17T14:21:01;100503.59;;;17.63;55.47
15314;BME280;7757;52.626;4.746;2023-03-17T14:23:53;100501.16;;;17.61;55.70
15314;BME280;7757;52.626;4.746;2023-03-17T14:26:40;100501.16;;;17.61;55.64
15314;BME280;7757;52.626;4.746;2023-03-17T14:29:28;100505.25;;;17.64;55.59
15314;BME280;7757;52.626;4.746;2023-03-17T14:32:18;100501.50;;;17.65;55.32
15314;BME280;7757;52.626;4.746;2023-03-17T14:35:04;100496.66;;;17.67;55.23
15314;BME280;7757;52.626;4.746;2023-03-17T14:37:50;100483.97;;;17.67;55.07
15314;BME280;7757;52.626;4.746;2023-03-17T14:40:35;100479.38;;;17.68;55.45
15314;BME280;7757;52.626;4.746;2023-03-17T14:43:22;100481.47;;;17.66;55.39
15314;BME280;7757;52.626;4.746;2023-03-17T14:46:13;100473.28;;;17.61;55.31
15314;BME280;7757;52.626;4.746;2023-03-17T14:49:02;100479.16;;;17.58;55.66
15314;BME280;7757;52.626;4.746;2023-03-17T14:51:48;100473.03;;;17.51;55.70
15314;BME280;7757;52.626;4.746;2023-03-17T14:54:43;100468.34;;;17.58;55.35